Time;durP1;ratioP1;P1;durP2;ratioP2;P2;SDS_P1;SDS_P2;PMS_P1;PMS_P2;Temp;Humidity;BMP_temperature;BMP_pressure;BME280_temperature;BME280_humidity;BME280_pressure;Samples;Min_cycle;Max_cycle;Signal;HPM_P1;HPM_P2
2021/05/04 00:00:44;;;;;;;16.58;7.55;;;;;;;3.71;100.00;100257.97;714321;1202;114327;-76
2021/05/04 00:16:05;;;;;;;11.37;5.47;;;;;;;3.69;100.00;100243.42;714338;1205;115334;-75
2021/05/04 00:31:25;;;;;;;9.53;5.55;;;;;;;3.63;100.00;100227.30;714215;1204;113704;-76
2021/05/04 00:46:46;;;;;;;10.30;5.80;;;;;;;3.50;100.00;100234.14;714150;1198;113548;-75
2021/05/04 01:02:07;;;;;;;12.88;7.20;;;;;;;3.36;100.00;100232.34;713749;1203;114161;-77
2021/05/04 01:17:30;;;;;;;13.20;6.78;;;;;;;3.22;100.00;100233.17;713668;1179;114195;-77
2021/05/04 01:32:50;;;;;;;24.13;10.48;;;;;;;3.09;100.00;100227.00;714467;1193;114557;-76
2021/05/04 01:48:11;;;;;;;13.77;7.67;;;;;;;3.09;100.00;100193.31;714872;1177;114046;-76
2021/05/04 02:03:32;;;;;;;14.20;7.65;;;;;;;3.08;100.00;100189.89;714856;1179;114247;-76
2021/05/04 02:18:56;;;;;;;19.58;9.65;;;;;;;3.03;100.00;100180.73;714934;1203;114144;-76
2021/05/04 02:34:17;;;;;;;15.60;8.50;;;;;;;2.92;100.00;100196.91;715242;1205;114629;-75
2021/05/04 02:49:37;;;;;;;20.40;9.98;;;;;;;2.86;100.00;100185.11;714489;1185;114220;-76
2021/05/04 03:04:58;;;;;;;17.65;9.00;;;;;;;2.78;100.00;100179.54;714267;1203;114746;-76
2021/05/04 03:20:18;;;;;;;17.83;9.90;;;;;;;2.81;100.00;100143.94;714211;1178;113838;-75
2021/05/04 03:35:39;;;;;;;17.25;9.90;;;;;;;2.86;100.00;100148.02;714571;1201;115357;-75
2021/05/04 03:50:59;;;;;;;18.00;10.83;;;;;;;3.04;100.00;100113.24;714437;1178;113784;-76
2021/05/04 04:06:19;;;;;;;22.23;13.87;;;;;;;3.37;100.00;100119.92;714071;1205;115518;-76
2021/05/04 04:21:39;;;;;;;20.70;10.70;;;;;;;3.65;100.00;100107.85;714198;1205;114421;-76
2021/05/04 04:37:00;;;;;;;15.73;9.13;;;;;;;3.96;100.00;100087.78;716606;1203;114118;-76
2021/05/04 04:52:20;;;;;;;14.83;9.13;;;;;;;4.56;100.00;100089.08;714448;1201;113660;-77
2021/05/04 05:07:42;;;;;;;20.43;10.25;;;;;;;5.10;100.00;100080.27;717281;1166;113803;-74
2021/05/04 05:23:02;;;;;;;17.37;9.93;;;;;;;5.67;100.00;100065.08;714029;1200;114401;-72
2021/05/04 05:38:23;;;;;;;20.60;11.55;;;;;;;6.31;100.00;100061.41;714003;1200;114946;-74
2021/05/04 05:53:44;;;;;;;17.30;12.07;;;;;;;6.55;100.00;100031.87;714145;1200;114140;-74
2021/05/04 06:09:04;;;;;;;20.30;13.20;;;;;;;7.15;100.00;100014.23;715138;1200;114822;-74
2021/05/04 06:24:25;;;;;;;17.25;10.93;;;;;;;7.70;100.00;99995.16;721407;1203;114357;-79
2021/05/04 06:39:46;;;;;;;17.13;12.25;;;;;;;8.46;100.00;99961.09;714115;1203;114586;-78
2021/05/04 06:55:07;;;;;;;15.67;8.83;;;;;;;8.88;100.00;99955.77;715408;1202;113847;-82
2021/05/04 07:10:27;;;;;;;15.97;8.93;;;;;;;9.53;100.00;99930.95;719428;1177;114272;-81
2021/05/04 07:25:48;;;;;;;14.38;9.70;;;;;;;9.99;100.00;99921.58;715672;1177;114012;-81
2021/05/04 07:41:08;;;;;;;12.53;7.90;;;;;;;10.72;100.00;99889.48;717024;1200;114352;-82
2021/05/04 07:56:29;;;;;;;12.43;8.35;;;;;;;11.69;98.89;99866.13;715221;1200;115131;-79
2021/05/04 08:11:53;;;;;;;76.68;29.58;;;;;;;12.25;92.13;99839.58;714540;1205;114572;-79
2021/05/04 08:27:13;;;;;;;42.83;22.73;;;;;;;12.81;86.56;99821.52;714308;1202;115265;-80
2021/05/04 08:42:34;;;;;;;29.65;14.63;;;;;;;12.97;80.40;99786.49;714102;1200;113925;-77
2021/05/04 08:57:55;;;;;;;12.43;7.40;;;;;;;13.68;75.94;99760.47;714116;1177;114474;-77
2021/05/04 09:13:20;;;;;;;16.25;8.25;;;;;;;14.47;71.20;99706.91;714103;1177;114190;-76
2021/05/04 09:28:48;;;;;;;13.15;7.78;;;;;;;15.26;66.79;99690.79;714010;1193;115956;-77
2021/05/04 09:44:08;;;;;;;11.60;5.80;;;;;;;15.18;61.43;99664.45;714408;1200;114285;-78
2021/05/04 09:59:46;;;;;;;11.48;6.10;;;;;;;15.20;59.26;99630.73;714038;1202;113895;-78
2021/05/04 10:15:08;;;;;;;7.80;3.63;;;;;;;15.06;54.38;99627.09;714266;1178;113974;-76
2021/05/04 10:30:31;;;;;;;7.28;3.83;;;;;;;15.45;54.29;99567.05;713915;1177;113728;-76
2021/05/04 10:45:56;;;;;;;7.33;4.03;;;;;;;15.74;55.50;99552.94;714013;1202;114068;-80
2021/05/04 11:01:18;;;;;;;8.13;4.33;;;;;;;15.34;54.09;99546.39;713952;1200;115148;-74
2021/05/04 11:16:41;;;;;;;8.50;5.43;;;;;;;15.47;53.21;99493.69;714076;1200;113514;-77
2021/05/04 11:32:14;;;;;;;8.43;5.03;;;;;;;15.98;52.94;99468.98;714521;1200;115193;-74
2021/05/04 11:47:37;;;;;;;7.70;4.40;;;;;;;15.72;49.32;99437.83;714857;1200;115262;-76
2021/05/04 12:03:08;;;;;;;7.58;4.33;;;;;;;14.97;50.38;99415.08;714542;1205;113784;-76
2021/05/04 12:18:34;;;;;;;7.80;5.95;;;;;;;14.64;54.53;99385.64;714410;1200;114102;-77
2021/05/04 12:33:56;;;;;;;8.50;5.10;;;;;;;14.56;54.49;99348.77;714389;1200;114760;-78
2021/05/04 12:49:17;;;;;;;10.80;5.93;;;;;;;14.52;56.09;99310.55;714235;1196;114495;-77
2021/05/04 13:20:34;;;;;;;9.45;6.10;;;;;;;14.38;56.62;99254.96;714129;1200;113882;-75
2021/05/04 13:36:03;;;;;;;8.30;5.88;;;;;;;14.28;57.11;99257.91;714032;1180;113671;-75
2021/05/04 13:51:23;;;;;;;9.83;6.08;;;;;;;14.69;56.37;99239.89;714694;1177;113659;-75
2021/05/04 15:08:55;;;;;;;11.68;5.73;;;;;;;14.16;58.29;99190.81;714401;1205;113557;-76
2021/05/04 15:24:16;;;;;;;11.25;7.38;;;;;;;13.06;66.77;99189.66;714401;1200;115510;-75
2021/05/04 15:39:36;;;;;;;23.93;16.93;;;;;;;11.76;80.60;99178.75;714632;1174;113981;-75
2021/05/04 16:10:36;;;;;;;26.48;19.08;;;;;;;10.96;96.19;99098.22;714570;1176;114859;-77
2021/05/04 16:41:21;;;;;;;107.53;64.80;;;;;;;10.85;100.00;99032.97;716292;1199;113954;-75
2021/05/04 16:56:42;;;;;;;39.58;23.55;;;;;;;10.77;100.00;99018.09;718348;1200;114679;-76
2021/05/04 17:12:03;;;;;;;36.88;20.25;;;;;;;10.82;100.00;98973.78;714225;1200;114838;-77
2021/05/04 17:27:23;;;;;;;20.52;12.38;;;;;;;11.04;100.00;98948.61;714543;1177;114080;-75
2021/05/04 17:42:44;;;;;;;66.68;29.65;;;;;;;11.33;100.00;98941.91;714509;1202;114668;-75
2021/05/04 17:58:04;;;;;;;42.05;21.55;;;;;;;11.39;100.00;98932.52;714554;1203;114147;-74
2021/05/04 18:29:06;;;;;;;21.70;12.30;;;;;;;11.81;95.76;98928.62;714953;1184;113788;-75
2021/05/04 20:18:29;;;;;;;11.15;6.60;;;;;;;10.13;100.00;98901.63;715550;1177;113951;-74
2021/05/04 20:33:49;;;;;;;12.08;6.70;;;;;;;9.94;100.00;98878.44;714870;1177;116033;-75
2021/05/04 20:49:10;;;;;;;10.30;6.65;;;;;;;9.90;100.00;98869.27;715102;1178;115627;-76
2021/05/04 21:04:31;;;;;;;8.60;6.50;;;;;;;9.91;100.00;98849.93;715071;1204;113891;-76
2021/05/04 21:20:02;;;;;;;14.70;7.43;;;;;;;9.99;100.00;98842.89;714648;1191;114013;-75
2021/05/04 21:35:28;;;;;;;10.93;7.13;;;;;;;9.96;100.00;98829.30;714635;1177;114669;-75
2021/05/04 21:50:49;;;;;;;11.23;7.43;;;;;;;9.79;100.00;98815.41;714673;1202;113827;-75
2021/05/04 22:06:10;;;;;;;14.08;8.75;;;;;;;10.16;100.00;98809.61;714870;1177;113844;-75
2021/05/04 22:37:02;;;;;;;13.25;8.18;;;;;;;10.16;100.00;98809.61;714376;1181;113888;-75
2021/05/04 23:23:42;;;;;;;11.13;7.03;;;;;;;10.37;100.00;98802.19;713970;1203;114392;-81
2021/05/04 23:39:03;;;;;;;12.70;6.45;;;;;;;10.40;100.00;98800.05;714280;1202;115282;-75
2021/05/04 23:54:24;;;;;;;16.43;7.80;;;;;;;10.38;100.00;98794.15;714308;1200;113852;-76
